Terminal Aerodrome Forecast
Issued by NWS

Home | Current Version | Previous Version | Text Only | Print | Product List | Glossary On
Versions: 1 2 3 4 5 6 7 8 9 10 11 12
000
FTUS42 KTBW 272334 AAA
TAFPIE
TAF AMD
KPIE 272334Z 2800/2824 21007KT P6SM SKC
     FM280300 VRB03KT P6SM SKC
     FM281400 15010KT P6SM FEW030
     FM281900 22012KT P6SM SCT050=

USA.gov is the U.S. government's official web portal to all federal, state and local government web resources and services.